sensor_id;sensor_type;location;lat;lon;timestamp;P1;durP1;ratioP1;P2;durP2;ratioP2
4200;SDS011;2114;50.398;8.814;2023-03-25T00:04:00;0.67;;;0.67;;
4200;SDS011;2114;50.398;8.814;2023-03-25T00:09:03;0.70;;;0.70;;
4200;SDS011;2114;50.398;8.814;2023-03-25T00:14:03;0.90;;;0.80;;
4200;SDS011;2114;50.398;8.814;2023-03-25T00:19:04;0.70;;;0.70;;
4200;SDS011;2114;50.398;8.814;2023-03-25T00:24:05;0.80;;;0.80;;
4200;SDS011;2114;50.398;8.814;2023-03-25T00:29:06;0.60;;;0.60;;
4200;SDS011;2114;50.398;8.814;2023-03-25T00:34:07;0.73;;;0.73;;
4200;SDS011;2114;50.398;8.814;2023-03-25T00:39:08;0.70;;;0.70;;
4200;SDS011;2114;50.398;8.814;2023-03-25T00:44:10;0.60;;;0.60;;
4200;SDS011;2114;50.398;8.814;2023-03-25T00:49:16;1.10;;;0.93;;
4200;SDS011;2114;50.398;8.814;2023-03-25T00:54:16;0.70;;;0.70;;
4200;SDS011;2114;50.398;8.814;2023-03-25T00:59:17;0.70;;;0.70;;
4200;SDS011;2114;50.398;8.814;2023-03-25T01:04:17;0.60;;;0.60;;
4200;SDS011;2114;50.398;8.814;2023-03-25T01:09:18;0.70;;;0.70;;
4200;SDS011;2114;50.398;8.814;2023-03-25T01:14:19;0.70;;;0.70;;
4200;SDS011;2114;50.398;8.814;2023-03-25T01:19:23;0.70;;;0.70;;
4200;SDS011;2114;50.398;8.814;2023-03-25T01:24:23;0.70;;;0.70;;
4200;SDS011;2114;50.398;8.814;2023-03-25T01:29:24;0.80;;;0.80;;
4200;SDS011;2114;50.398;8.814;2023-03-25T01:34:25;0.70;;;0.70;;
4200;SDS011;2114;50.398;8.814;2023-03-25T01:39:26;0.70;;;0.70;;
4200;SDS011;2114;50.398;8.814;2023-03-25T01:49:30;0.90;;;0.90;;
4200;SDS011;2114;50.398;8.814;2023-03-25T01:54:38;0.70;;;0.70;;
4200;SDS011;2114;50.398;8.814;2023-03-25T01:59:39;0.70;;;0.70;;
4200;SDS011;2114;50.398;8.814;2023-03-25T02:04:47;0.70;;;0.70;;
4200;SDS011;2114;50.398;8.814;2023-03-25T02:09:58;0.60;;;0.60;;
4200;SDS011;2114;50.398;8.814;2023-03-25T02:15:02;0.70;;;0.70;;
4200;SDS011;2114;50.398;8.814;2023-03-25T02:36:31;0.80;;;0.80;;
4200;SDS011;2114;50.398;8.814;2023-03-25T02:41:38;0.60;;;0.60;;
4200;SDS011;2114;50.398;8.814;2023-03-25T02:46:50;0.60;;;0.60;;
4200;SDS011;2114;50.398;8.814;2023-03-25T02:57:11;0.60;;;0.60;;
4200;SDS011;2114;50.398;8.814;2023-03-25T03:02:15;0.60;;;0.60;;
4200;SDS011;2114;50.398;8.814;2023-03-25T03:07:22;0.70;;;0.70;;
4200;SDS011;2114;50.398;8.814;2023-03-25T03:12:35;0.60;;;0.60;;
4200;SDS011;2114;50.398;8.814;2023-03-25T03:18:03;0.70;;;0.70;;
4200;SDS011;2114;50.398;8.814;2023-03-25T03:23:15;1.37;;;1.00;;
4200;SDS011;2114;50.398;8.814;2023-03-25T03:28:46;0.70;;;0.70;;
4200;SDS011;2114;50.398;8.814;2023-03-25T03:33:59;0.93;;;0.93;;
4200;SDS011;2114;50.398;8.814;2023-03-25T03:39:06;2.30;;;1.50;;
4200;SDS011;2114;50.398;8.814;2023-03-25T03:44:19;0.70;;;0.70;;
4200;SDS011;2114;50.398;8.814;2023-03-25T03:49:26;0.70;;;0.70;;
4200;SDS011;2114;50.398;8.814;2023-03-25T03:54:32;0.97;;;0.87;;
4200;SDS011;2114;50.398;8.814;2023-03-25T04:05:12;0.70;;;0.70;;
4200;SDS011;2114;50.398;8.814;2023-03-25T04:10:17;0.60;;;0.60;;
4200;SDS011;2114;50.398;8.814;2023-03-25T04:15:22;0.70;;;0.70;;
4200;SDS011;2114;50.398;8.814;2023-03-25T04:20:23;0.70;;;0.70;;
4200;SDS011;2114;50.398;8.814;2023-03-25T04:25:25;5.83;;;0.97;;
4200;SDS011;2114;50.398;8.814;2023-03-25T04:30:27;0.70;;;0.70;;
4200;SDS011;2114;50.398;8.814;2023-03-25T04:35:28;0.70;;;0.70;;
4200;SDS011;2114;50.398;8.814;2023-03-25T04:40:49;0.80;;;0.80;;
4200;SDS011;2114;50.398;8.814;2023-03-25T04:45:49;0.70;;;0.70;;
4200;SDS011;2114;50.398;8.814;2023-03-25T04:50:53;0.70;;;0.70;;
4200;SDS011;2114;50.398;8.814;2023-03-25T04:55:54;0.70;;;0.70;;
4200;SDS011;2114;50.398;8.814;2023-03-25T05:00:55;1.07;;;1.00;;
4200;SDS011;2114;50.398;8.814;2023-03-25T05:06:05;0.80;;;0.80;;
4200;SDS011;2114;50.398;8.814;2023-03-25T05:11:06;0.60;;;0.60;;
4200;SDS011;2114;50.398;8.814;2023-03-25T05:16:07;1.63;;;1.53;;
4200;SDS011;2114;50.398;8.814;2023-03-25T05:21:07;0.70;;;0.70;;
4200;SDS011;2114;50.398;8.814;2023-03-25T05:26:10;0.60;;;0.60;;
4200;SDS011;2114;50.398;8.814;2023-03-25T05:31:13;0.70;;;0.70;;
4200;SDS011;2114;50.398;8.814;2023-03-25T05:36:14;0.80;;;0.80;;
4200;SDS011;2114;50.398;8.814;2023-03-25T05:41:17;0.70;;;0.70;;
4200;SDS011;2114;50.398;8.814;2023-03-25T05:46:18;0.70;;;0.70;;
4200;SDS011;2114;50.398;8.814;2023-03-25T05:51:19;0.80;;;0.70;;
4200;SDS011;2114;50.398;8.814;2023-03-25T05:56:24;1.00;;;0.90;;
4200;SDS011;2114;50.398;8.814;2023-03-25T06:01:25;0.70;;;0.70;;
4200;SDS011;2114;50.398;8.814;2023-03-25T06:06:26;3.63;;;0.97;;
4200;SDS011;2114;50.398;8.814;2023-03-25T06:11:27;3.50;;;1.63;;
4200;SDS011;2114;50.398;8.814;2023-03-25T06:16:28;3.33;;;1.33;;
4200;SDS011;2114;50.398;8.814;2023-03-25T06:21:31;1.43;;;0.90;;
4200;SDS011;2114;50.398;8.814;2023-03-25T06:26:32;3.43;;;1.67;;
4200;SDS011;2114;50.398;8.814;2023-03-25T06:31:33;1.10;;;1.00;;
4200;SDS011;2114;50.398;8.814;2023-03-25T06:36:33;1.30;;;1.20;;
4200;SDS011;2114;50.398;8.814;2023-03-25T06:41:34;0.90;;;0.90;;
4200;SDS011;2114;50.398;8.814;2023-03-25T06:46:36;1.00;;;1.00;;
4200;SDS011;2114;50.398;8.814;2023-03-25T06:51:37;1.90;;;0.93;;
4200;SDS011;2114;50.398;8.814;2023-03-25T06:56:38;0.97;;;0.80;;
4200;SDS011;2114;50.398;8.814;2023-03-25T07:01:38;0.70;;;0.70;;
4200;SDS011;2114;50.398;8.814;2023-03-25T07:06:40;0.60;;;0.60;;
4200;SDS011;2114;50.398;8.814;2023-03-25T07:11:40;0.70;;;0.70;;
4200;SDS011;2114;50.398;8.814;2023-03-25T07:16:41;0.70;;;0.70;;
4200;SDS011;2114;50.398;8.814;2023-03-25T07:21:41;2.83;;;1.20;;
4200;SDS011;2114;50.398;8.814;2023-03-25T07:26:42;0.90;;;0.90;;
4200;SDS011;2114;50.398;8.814;2023-03-25T07:31:43;0.80;;;0.80;;
4200;SDS011;2114;50.398;8.814;2023-03-25T07:36:45;0.60;;;0.60;;
4200;SDS011;2114;50.398;8.814;2023-03-25T07:41:46;0.80;;;0.80;;
4200;SDS011;2114;50.398;8.814;2023-03-25T07:46:46;1.20;;;1.10;;
4200;SDS011;2114;50.398;8.814;2023-03-25T07:51:47;0.93;;;0.93;;
4200;SDS011;2114;50.398;8.814;2023-03-25T07:56:48;2.20;;;2.00;;
4200;SDS011;2114;50.398;8.814;2023-03-25T08:01:51;0.80;;;0.80;;
4200;SDS011;2114;50.398;8.814;2023-03-25T08:06:52;1.00;;;0.97;;
4200;SDS011;2114;50.398;8.814;2023-03-25T08:11:52;0.77;;;0.77;;
4200;SDS011;2114;50.398;8.814;2023-03-25T08:16:53;0.70;;;0.70;;
4200;SDS011;2114;50.398;8.814;2023-03-25T08:21:54;0.70;;;0.70;;
4200;SDS011;2114;50.398;8.814;2023-03-25T08:26:54;0.70;;;0.70;;
4200;SDS011;2114;50.398;8.814;2023-03-25T08:31:55;2.37;;;1.10;;
4200;SDS011;2114;50.398;8.814;2023-03-25T08:36:56;1.50;;;0.87;;
4200;SDS011;2114;50.398;8.814;2023-03-25T08:41:56;0.60;;;0.60;;
4200;SDS011;2114;50.398;8.814;2023-03-25T08:46:58;1.27;;;0.83;;
4200;SDS011;2114;50.398;8.814;2023-03-25T08:51:58;5.50;;;1.10;;
4200;SDS011;2114;50.398;8.814;2023-03-25T08:57:00;1.37;;;1.03;;
4200;SDS011;2114;50.398;8.814;2023-03-25T09:02:01;0.80;;;0.80;;
4200;SDS011;2114;50.398;8.814;2023-03-25T09:07:02;2.30;;;0.97;;
4200;SDS011;2114;50.398;8.814;2023-03-25T09:12:03;0.70;;;0.70;;
4200;SDS011;2114;50.398;8.814;2023-03-25T09:17:05;0.70;;;0.70;;
4200;SDS011;2114;50.398;8.814;2023-03-25T09:22:06;1.10;;;1.10;;
4200;SDS011;2114;50.398;8.814;2023-03-25T09:27:07;0.73;;;0.73;;
4200;SDS011;2114;50.398;8.814;2023-03-25T09:32:08;0.70;;;0.70;;
4200;SDS011;2114;50.398;8.814;2023-03-25T09:37:08;1.70;;;0.90;;
4200;SDS011;2114;50.398;8.814;2023-03-25T09:47:51;0.63;;;0.63;;
4200;SDS011;2114;50.398;8.814;2023-03-25T09:58:35;0.67;;;0.67;;
4200;SDS011;2114;50.398;8.814;2023-03-25T10:09:09;0.60;;;0.60;;
4200;SDS011;2114;50.398;8.814;2023-03-25T10:20:00;0.60;;;0.60;;
4200;SDS011;2114;50.398;8.814;2023-03-25T10:25:16;0.70;;;0.70;;
4200;SDS011;2114;50.398;8.814;2023-03-25T10:30:22;0.60;;;0.60;;
4200;SDS011;2114;50.398;8.814;2023-03-25T10:40:38;0.60;;;0.60;;
4200;SDS011;2114;50.398;8.814;2023-03-25T10:45:44;0.70;;;0.70;;
4200;SDS011;2114;50.398;8.814;2023-03-25T10:50:46;0.80;;;0.80;;
4200;SDS011;2114;50.398;8.814;2023-03-25T10:55:50;0.97;;;0.97;;
4200;SDS011;2114;50.398;8.814;2023-03-25T11:01:27;0.60;;;0.60;;
4200;SDS011;2114;50.398;8.814;2023-03-25T11:06:35;0.70;;;0.70;;
4200;SDS011;2114;50.398;8.814;2023-03-25T11:11:41;1.10;;;0.77;;
4200;SDS011;2114;50.398;8.814;2023-03-25T11:16:45;0.63;;;0.63;;
4200;SDS011;2114;50.398;8.814;2023-03-25T11:22:02;0.80;;;0.70;;
4200;SDS011;2114;50.398;8.814;2023-03-25T11:27:08;0.70;;;0.70;;
4200;SDS011;2114;50.398;8.814;2023-03-25T11:32:14;0.70;;;0.70;;
4200;SDS011;2114;50.398;8.814;2023-03-25T11:42:22;0.87;;;0.83;;
4200;SDS011;2114;50.398;8.814;2023-03-25T11:47:36;1.03;;;0.77;;
4200;SDS011;2114;50.398;8.814;2023-03-25T11:52:40;0.67;;;0.67;;
4200;SDS011;2114;50.398;8.814;2023-03-25T11:57:46;0.60;;;0.60;;
4200;SDS011;2114;50.398;8.814;2023-03-25T12:02:48;0.60;;;0.60;;
4200;SDS011;2114;50.398;8.814;2023-03-25T12:08:00;1.10;;;0.90;;
4200;SDS011;2114;50.398;8.814;2023-03-25T12:28:58;3.03;;;0.70;;
4200;SDS011;2114;50.398;8.814;2023-03-25T12:34:52;0.80;;;0.80;;
4200;SDS011;2114;50.398;8.814;2023-03-25T12:45:22;0.80;;;0.80;;
4200;SDS011;2114;50.398;8.814;2023-03-25T12:50:53;0.70;;;0.70;;
4200;SDS011;2114;50.398;8.814;2023-03-25T13:01:23;0.67;;;0.67;;
4200;SDS011;2114;50.398;8.814;2023-03-25T13:06:37;0.67;;;0.67;;
4200;SDS011;2114;50.398;8.814;2023-03-25T13:16:56;0.70;;;0.70;;
4200;SDS011;2114;50.398;8.814;2023-03-25T13:22:03;0.70;;;0.70;;
4200;SDS011;2114;50.398;8.814;2023-03-25T13:27:12;1.03;;;1.00;;
4200;SDS011;2114;50.398;8.814;2023-03-25T13:32:16;0.60;;;0.60;;
4200;SDS011;2114;50.398;8.814;2023-03-25T13:37:25;0.60;;;0.60;;
4200;SDS011;2114;50.398;8.814;2023-03-25T13:53:49;0.80;;;0.77;;
4200;SDS011;2114;50.398;8.814;2023-03-25T13:59:03;11.67;;;10.97;;
4200;SDS011;2114;50.398;8.814;2023-03-25T14:15:11;1.60;;;1.60;;
4200;SDS011;2114;50.398;8.814;2023-03-25T14:20:19;2.00;;;2.00;;
4200;SDS011;2114;50.398;8.814;2023-03-25T14:25:57;1.77;;;1.67;;
4200;SDS011;2114;50.398;8.814;2023-03-25T14:36:12;0.80;;;0.80;;
4200;SDS011;2114;50.398;8.814;2023-03-25T14:41:13;1.60;;;1.40;;
4200;SDS011;2114;50.398;8.814;2023-03-25T14:46:14;1.20;;;1.20;;
4200;SDS011;2114;50.398;8.814;2023-03-25T14:56:35;1.60;;;1.53;;
4200;SDS011;2114;50.398;8.814;2023-03-25T15:01:41;1.50;;;1.40;;
4200;SDS011;2114;50.398;8.814;2023-03-25T15:06:44;2.00;;;2.00;;
4200;SDS011;2114;50.398;8.814;2023-03-25T15:12:00;16.90;;;15.50;;
4200;SDS011;2114;50.398;8.814;2023-03-25T15:17:05;13.30;;;12.30;;
4200;SDS011;2114;50.398;8.814;2023-03-25T15:22:19;15.40;;;14.03;;
4200;SDS011;2114;50.398;8.814;2023-03-25T15:37:59;9.10;;;8.70;;
4200;SDS011;2114;50.398;8.814;2023-03-25T15:59:52;4.80;;;4.70;;
4200;SDS011;2114;50.398;8.814;2023-03-25T16:04:58;1.37;;;1.37;;
4200;SDS011;2114;50.398;8.814;2023-03-25T16:10:04;0.70;;;0.70;;
4200;SDS011;2114;50.398;8.814;2023-03-25T16:15:15;1.63;;;1.13;;
4200;SDS011;2114;50.398;8.814;2023-03-25T16:20:20;0.70;;;0.70;;
4200;SDS011;2114;50.398;8.814;2023-03-25T16:25:26;1.03;;;0.70;;
4200;SDS011;2114;50.398;8.814;2023-03-25T16:30:35;0.70;;;0.70;;
4200;SDS011;2114;50.398;8.814;2023-03-25T16:35:42;0.70;;;0.70;;
4200;SDS011;2114;50.398;8.814;2023-03-25T16:40:49;0.80;;;0.80;;
4200;SDS011;2114;50.398;8.814;2023-03-25T16:45:50;2.73;;;1.40;;
4200;SDS011;2114;50.398;8.814;2023-03-25T16:50:54;0.70;;;0.70;;
4200;SDS011;2114;50.398;8.814;2023-03-25T17:01:09;0.80;;;0.70;;
4200;SDS011;2114;50.398;8.814;2023-03-25T17:11:18;2.03;;;1.07;;
4200;SDS011;2114;50.398;8.814;2023-03-25T17:16:21;0.70;;;0.70;;
4200;SDS011;2114;50.398;8.814;2023-03-25T17:21:23;0.80;;;0.80;;
4200;SDS011;2114;50.398;8.814;2023-03-25T17:26:30;0.93;;;0.80;;
4200;SDS011;2114;50.398;8.814;2023-03-25T17:31:36;1.27;;;0.93;;
4200;SDS011;2114;50.398;8.814;2023-03-25T17:36:40;2.73;;;1.10;;
4200;SDS011;2114;50.398;8.814;2023-03-25T17:41:44;0.70;;;0.70;;
4200;SDS011;2114;50.398;8.814;2023-03-25T17:46:45;0.70;;;0.70;;
4200;SDS011;2114;50.398;8.814;2023-03-25T17:51:46;0.70;;;0.70;;
4200;SDS011;2114;50.398;8.814;2023-03-25T17:56:47;0.60;;;0.60;;
4200;SDS011;2114;50.398;8.814;2023-03-25T18:01:47;0.70;;;0.70;;
4200;SDS011;2114;50.398;8.814;2023-03-25T18:06:50;0.70;;;0.70;;
4200;SDS011;2114;50.398;8.814;2023-03-25T18:11:52;1.57;;;1.00;;
4200;SDS011;2114;50.398;8.814;2023-03-25T18:16:55;1.17;;;1.00;;
4200;SDS011;2114;50.398;8.814;2023-03-25T18:21:56;1.27;;;1.13;;
4200;SDS011;2114;50.398;8.814;2023-03-25T18:26:56;0.70;;;0.70;;
4200;SDS011;2114;50.398;8.814;2023-03-25T18:31:57;0.97;;;0.80;;
4200;SDS011;2114;50.398;8.814;2023-03-25T18:36:57;0.67;;;0.67;;
4200;SDS011;2114;50.398;8.814;2023-03-25T18:41:58;0.80;;;0.80;;
4200;SDS011;2114;50.398;8.814;2023-03-25T18:46:59;0.67;;;0.67;;
4200;SDS011;2114;50.398;8.814;2023-03-25T18:51:59;0.80;;;0.80;;
4200;SDS011;2114;50.398;8.814;2023-03-25T18:57:01;0.70;;;0.70;;
4200;SDS011;2114;50.398;8.814;2023-03-25T19:02:02;3.07;;;1.03;;
4200;SDS011;2114;50.398;8.814;2023-03-25T19:07:02;0.70;;;0.70;;
4200;SDS011;2114;50.398;8.814;2023-03-25T19:12:03;0.80;;;0.80;;
4200;SDS011;2114;50.398;8.814;2023-03-25T19:17:04;0.70;;;0.70;;
4200;SDS011;2114;50.398;8.814;2023-03-25T19:22:05;0.70;;;0.70;;
4200;SDS011;2114;50.398;8.814;2023-03-25T19:27:08;0.80;;;0.80;;
4200;SDS011;2114;50.398;8.814;2023-03-25T19:32:09;0.70;;;0.70;;
4200;SDS011;2114;50.398;8.814;2023-03-25T19:37:09;1.10;;;0.90;;
4200;SDS011;2114;50.398;8.814;2023-03-25T19:42:10;0.70;;;0.70;;
4200;SDS011;2114;50.398;8.814;2023-03-25T19:47:11;0.70;;;0.70;;
4200;SDS011;2114;50.398;8.814;2023-03-25T19:52:12;1.63;;;0.90;;
4200;SDS011;2114;50.398;8.814;2023-03-25T19:57:12;0.90;;;0.90;;
4200;SDS011;2114;50.398;8.814;2023-03-25T20:02:13;0.70;;;0.70;;
4200;SDS011;2114;50.398;8.814;2023-03-25T20:07:14;0.83;;;0.83;;
4200;SDS011;2114;50.398;8.814;2023-03-25T20:12:15;0.80;;;0.80;;
4200;SDS011;2114;50.398;8.814;2023-03-25T20:17:15;0.87;;;0.87;;
4200;SDS011;2114;50.398;8.814;2023-03-25T20:22:16;0.80;;;0.80;;
4200;SDS011;2114;50.398;8.814;2023-03-25T20:27:17;0.80;;;0.80;;
4200;SDS011;2114;50.398;8.814;2023-03-25T20:32:17;0.70;;;0.70;;
4200;SDS011;2114;50.398;8.814;2023-03-25T20:37:18;0.70;;;0.70;;
4200;SDS011;2114;50.398;8.814;2023-03-25T20:42:18;1.00;;;0.90;;
4200;SDS011;2114;50.398;8.814;2023-03-25T20:47:19;0.80;;;0.80;;
4200;SDS011;2114;50.398;8.814;2023-03-25T20:52:20;0.80;;;0.80;;
4200;SDS011;2114;50.398;8.814;2023-03-25T20:57:20;0.70;;;0.70;;
4200;SDS011;2114;50.398;8.814;2023-03-25T21:02:21;0.70;;;0.70;;
4200;SDS011;2114;50.398;8.814;2023-03-25T21:07:22;0.70;;;0.70;;
4200;SDS011;2114;50.398;8.814;2023-03-25T21:12:26;1.07;;;0.90;;
4200;SDS011;2114;50.398;8.814;2023-03-25T21:17:27;0.80;;;0.80;;
4200;SDS011;2114;50.398;8.814;2023-03-25T21:22:27;0.80;;;0.80;;
4200;SDS011;2114;50.398;8.814;2023-03-25T21:27:29;5.03;;;1.17;;
4200;SDS011;2114;50.398;8.814;2023-03-25T21:32:31;0.67;;;0.67;;
4200;SDS011;2114;50.398;8.814;2023-03-25T21:37:32;0.73;;;0.73;;
4200;SDS011;2114;50.398;8.814;2023-03-25T21:42:36;3.03;;;1.13;;
4200;SDS011;2114;50.398;8.814;2023-03-25T21:47:40;0.90;;;0.90;;
4200;SDS011;2114;50.398;8.814;2023-03-25T21:52:42;0.70;;;0.70;;
4200;SDS011;2114;50.398;8.814;2023-03-25T21:57:45;0.70;;;0.70;;
4200;SDS011;2114;50.398;8.814;2023-03-25T22:02:46;0.93;;;0.93;;
4200;SDS011;2114;50.398;8.814;2023-03-25T22:07:47;1.47;;;1.37;;
4200;SDS011;2114;50.398;8.814;2023-03-25T22:12:47;0.70;;;0.70;;
4200;SDS011;2114;50.398;8.814;2023-03-25T22:17:48;0.80;;;0.80;;
4200;SDS011;2114;50.398;8.814;2023-03-25T22:22:49;0.70;;;0.70;;
4200;SDS011;2114;50.398;8.814;2023-03-25T22:27:50;0.70;;;0.70;;
4200;SDS011;2114;50.398;8.814;2023-03-25T22:32:50;0.80;;;0.80;;
4200;SDS011;2114;50.398;8.814;2023-03-25T22:37:51;0.80;;;0.80;;
4200;SDS011;2114;50.398;8.814;2023-03-25T22:42:54;0.70;;;0.70;;
4200;SDS011;2114;50.398;8.814;2023-03-25T22:47:55;0.90;;;0.90;;
4200;SDS011;2114;50.398;8.814;2023-03-25T22:52:55;0.70;;;0.70;;
4200;SDS011;2114;50.398;8.814;2023-03-25T22:57:56;0.73;;;0.73;;
4200;SDS011;2114;50.398;8.814;2023-03-25T23:02:57;1.80;;;0.90;;
4200;SDS011;2114;50.398;8.814;2023-03-25T23:07:57;0.70;;;0.70;;
4200;SDS011;2114;50.398;8.814;2023-03-25T23:12:58;0.80;;;0.80;;
4200;SDS011;2114;50.398;8.814;2023-03-25T23:17:59;0.70;;;0.70;;
4200;SDS011;2114;50.398;8.814;2023-03-25T23:22:59;2.87;;;0.80;;
4200;SDS011;2114;50.398;8.814;2023-03-25T23:28:01;1.17;;;0.80;;
4200;SDS011;2114;50.398;8.814;2023-03-25T23:33:04;1.00;;;0.80;;
4200;SDS011;2114;50.398;8.814;2023-03-25T23:38:05;0.70;;;0.70;;
4200;SDS011;2114;50.398;8.814;2023-03-25T23:43:06;0.83;;;0.83;;
4200;SDS011;2114;50.398;8.814;2023-03-25T23:48:06;0.70;;;0.70;;
4200;SDS011;2114;50.398;8.814;2023-03-25T23:53:07;0.80;;;0.80;;
4200;SDS011;2114;50.398;8.814;2023-03-25T23:58:07;0.70;;;0.70;;
